Weather History for KHNZ - April, 2014

Change the Weather History Date:

Tuesday, April 22, 2014

  Actual Average (KTDF) Record (KTDF)
Temperature  
Mean Temperature 65 °F -  
Max Temperature 82 °F 72 °F 93 °F (1985)
Min Temperature 48 °F 47 °F 35 °F (1978)
Growing Degree Days 15 (Base 50)    
Moisture  
Dew Point 45 °F    
Average Humidity 56    
Maximum Humidity 79    
Minimum Humidity 27    
Precipitation  
Precipitation 0.00 in - - ()
Sea Level Pressure  
Sea Level Pressure 29.76 in    
Wind  
Wind Speed 5 mph (SW)    
Max Wind Speed 15 mph    
Max Gust Speed 37 mph    
Visibility 10 miles    
Events Rain    
Averages and records for this station are not official NWS values.
T = Trace of Precipitation, MM = Missing Value Source: NWS Daily Summary

Daily Weather History Graph

Daily Weather History Graph

Search for Another Location

Airport or City:

Trip Planner

Search our weather history database for the weather conditions in past years. The results will help you decide how hot, cold, wet, or windy it might be!

Date:

Astronomy

Apr. 22, 2014 Rise Set
Actual Time 6:31 AM EDT 7:54 PM EDT
Civil Twilight 6:04 AM EDT 8:21 PM EDT
Nautical Twilight 5:32 AM EDT 8:53 PM EDT
Astronomical Twilight 4:58 AM EDT 9:27 PM EDT
Moon 2:06 AM EDT (4/22) 1:05 PM EDT (4/22)
Length of Visible Light 14h 16m
Length of Day
13h 22m
Last Quarter, 46% of the Moon is Illuminated
Apr 22
Last Quarter
Apr 29
New
May 6
First Quarter
May 14
Full
May 21
Last Quarter

Hourly Weather History & Observations

Time (EDT) Temp. Dew Point Humidity Pressure Visibility Wind Dir Wind Speed Gust Speed Precip Events Conditions
12:15 AM 52.7 °F 34.2 °F 49% 29.93 in 10.0 mi SSW 3.5 mph - N/A   Clear
12:35 AM 48.0 °F 40.3 °F 75% 29.92 in 10.0 mi Calm Calm - N/A   Clear
12:55 AM 48.2 °F 41.4 °F 77% 29.91 in 10.0 mi South 3.5 mph - N/A   Clear
1:15 AM 51.3 °F 37.2 °F 59% 29.90 in 10.0 mi Calm Calm - N/A   Clear
1:35 AM 49.5 °F 39.0 °F 67% 29.89 in 10.0 mi South 3.5 mph - N/A   Clear
1:55 AM 49.8 °F 38.5 °F 65% 29.89 in 10.0 mi SW 5.8 mph - N/A   Clear
2:15 AM 50.2 °F 41.7 °F 73% 29.88 in 10.0 mi Calm Calm - N/A   Clear
2:35 AM 49.5 °F 42.1 °F 76% 29.87 in 10.0 mi SSW 3.5 mph - N/A   Clear
2:55 AM 51.1 °F 38.7 °F 63% 29.86 in 10.0 mi South 5.8 mph - N/A   Clear
3:15 AM 50.7 °F 38.3 °F 62% 29.85 in 10.0 mi SSW 5.8 mph - N/A   Clear
3:35 AM 48.4 °F 40.5 °F 74% 29.85 in 10.0 mi South 5.8 mph - N/A   Clear
3:55 AM 50.5 °F 37.6 °F 61% 29.84 in 10.0 mi SSW 4.6 mph - N/A   Clear
4:15 AM 50.2 °F 38.1 °F 63% 29.84 in 10.0 mi SSW 5.8 mph - N/A   Clear
4:35 AM 50.4 °F 39.7 °F 67% 29.84 in 10.0 mi SSW 4.6 mph - N/A   Clear
4:55 AM 50.5 °F 38.3 °F 63% 29.82 in 10.0 mi SSW 4.6 mph - N/A   Clear
5:15 AM 50.0 °F 38.1 °F 64% 29.82 in 10.0 mi South 4.6 mph - N/A   Clear
5:35 AM 50.9 °F 37.2 °F 59% 29.81 in 10.0 mi South 4.6 mph - N/A   Clear
5:55 AM 50.5 °F 37.6 °F 61% 29.81 in 10.0 mi South 5.8 mph - N/A   Clear
6:15 AM 48.6 °F 39.2 °F 70% 29.81 in 10.0 mi South 4.6 mph - N/A   Clear
6:35 AM 48.2 °F 39.0 °F 71% 29.81 in 10.0 mi SSW 5.8 mph - N/A   Clear
6:55 AM 48.0 °F 39.6 °F 73% 29.81 in 10.0 mi SSW 5.8 mph - N/A   Clear
7:15 AM 49.1 °F 41.5 °F 75% 29.81 in 10.0 mi SSW 5.8 mph - N/A   Clear
7:35 AM 51.6 °F 41.4 °F 68% 29.80 in 10.0 mi SSW 5.8 mph - N/A   Clear
7:55 AM 53.8 °F 41.0 °F 62% 29.80 in 10.0 mi SW 8.1 mph - N/A   Clear
8:15 AM 54.9 °F 41.0 °F 60% 29.80 in 10.0 mi SW 6.9 mph - N/A   Clear
8:35 AM 55.2 °F 41.9 °F 61% 29.80 in 10.0 mi SW 5.8 mph - N/A   Clear
8:55 AM 59.0 °F 42.1 °F 53% 29.79 in 10.0 mi SW 6.9 mph - N/A   Clear
9:15 AM 61.9 °F 42.4 °F 49% 29.79 in 10.0 mi SW 6.9 mph - N/A   Clear
9:35 AM 64.4 °F 43.0 °F 46% 29.78 in 10.0 mi SW 5.8 mph - N/A   Clear
9:55 AM 66.4 °F 43.9 °F 44% 29.78 in 10.0 mi WSW 5.8 mph - N/A   Clear
10:15 AM 68.7 °F 45.7 °F 44% 29.77 in 10.0 mi SSW 3.5 mph - N/A   Clear
10:35 AM 70.2 °F 45.3 °F 41% 29.77 in 10.0 mi South 3.5 mph - N/A   Clear
10:55 AM 72.0 °F 45.5 °F 39% 29.77 in 10.0 mi SSW 3.5 mph - N/A   Clear
11:15 AM 73.9 °F 45.9 °F 37% 29.77 in 10.0 mi SW 3.5 mph - N/A   Clear
11:35 AM 75.0 °F 46.8 °F 37% 29.76 in 10.0 mi SW 5.8 mph - N/A   Clear
11:55 AM 75.7 °F 46.2 °F 35% 29.76 in 10.0 mi SW 5.8 mph - N/A   Scattered Clouds
12:15 PM 77.2 °F 45.3 °F 32% 29.74 in 10.0 mi West 5.8 mph - N/A   Scattered Clouds
12:35 PM 78.8 °F 44.6 °F 30% 29.73 in 10.0 mi West 6.9 mph - N/A   Clear
12:55 PM 79.5 °F 44.4 °F 29% 29.72 in 10.0 mi West 5.8 mph - N/A   Clear
1:15 PM 77.9 °F 43.7 °F 30% 29.71 in 10.0 mi West 6.9 mph - N/A   Clear
1:35 PM 78.3 °F 45.5 °F 31% 29.71 in 10.0 mi SW 10.4 mph - N/A   Scattered Clouds
1:55 PM 79.9 °F 43.7 °F 28% 29.70 in 10.0 mi SW 8.1 mph - N/A   Scattered Clouds
2:15 PM 79.7 °F 42.4 °F 27% 29.70 in 10.0 mi WSW 10.4 mph - N/A   Scattered Clouds
2:35 PM 78.6 °F 44.2 °F 30% 29.69 in 10.0 mi SW 10.4 mph 17.3 mph N/A   Scattered Clouds
2:55 PM 79.0 °F 43.5 °F 28% 29.69 in 10.0 mi West 10.4 mph 18.4 mph N/A   Scattered Clouds
3:15 PM 80.8 °F 43.9 °F 27% 29.67 in 10.0 mi WSW 11.5 mph 17.3 mph N/A   Scattered Clouds
3:35 PM 82.0 °F 44.8 °F 27% 29.66 in 10.0 mi WSW 12.7 mph 17.3 mph N/A   Scattered Clouds
3:55 PM 80.4 °F 44.1 °F 28% 29.66 in 10.0 mi WSW 9.2 mph 16.1 mph N/A   Scattered Clouds
4:15 PM 79.2 °F 43.5 °F 28% 29.65 in 10.0 mi SW 10.4 mph 17.3 mph N/A   Mostly Cloudy
4:35 PM 77.2 °F 43.5 °F 30% 29.66 in 10.0 mi WSW 10.4 mph - N/A   Overcast
4:55 PM 72.7 °F 48.9 °F 43% 29.68 in 10.0 mi NW 15.0 mph 36.8 mph N/A   Overcast
5:15 PM 69.4 °F 52.2 °F 54% 29.68 in 10.0 mi NW 11.5 mph 16.1 mph N/A   Overcast
5:35 PM 65.7 °F 55.2 °F 69% 29.68 in 10.0 mi WNW 5.8 mph - N/A Rain Light Rain
5:55 PM 65.3 °F 56.3 °F 73% 29.67 in 10.0 mi WSW 3.5 mph - N/A   Mostly Cloudy
6:15 PM 65.8 °F 56.5 °F 72% 29.67 in 10.0 mi West 3.5 mph - N/A   Clear
6:35 PM 67.1 °F 55.4 °F 66% 29.67 in 10.0 mi Calm Calm - N/A   Clear
6:55 PM 67.1 °F 54.7 °F 64% 29.67 in 10.0 mi West 3.5 mph - N/A   Scattered Clouds
7:15 PM 66.6 °F 54.7 °F 66% 29.67 in 10.0 mi WSW 3.5 mph - N/A   Scattered Clouds
7:35 PM 66.2 °F 54.1 °F 65% 29.67 in 10.0 mi WSW 3.5 mph - N/A   Clear
7:55 PM 64.9 °F 54.9 °F 70% 29.67 in 10.0 mi SSW 3.5 mph - N/A   Clear
8:15 PM 62.1 °F 55.6 °F 79% 29.67 in 10.0 mi SW 6.9 mph - N/A   Scattered Clouds
8:35 PM 64.0 °F 54.1 °F 70% 29.67 in 10.0 mi Calm Calm - N/A   Mostly Cloudy
8:55 PM 63.9 °F 54.9 °F 72% 29.67 in 10.0 mi SW 4.6 mph - N/A   Overcast
9:15 PM 63.5 °F 53.4 °F 70% 29.68 in 10.0 mi SW 6.9 mph - N/A   Mostly Cloudy
9:35 PM 64.9 °F 52.9 °F 65% 29.68 in 10.0 mi SW 6.9 mph - N/A   Scattered Clouds
10:15 PM 64.6 °F 53.6 °F 68% 29.69 in 10.0 mi WSW 4.6 mph - N/A   Clear
10:35 PM 64.2 °F 53.6 °F 68% 29.69 in 10.0 mi WSW 4.6 mph - N/A   Clear
10:55 PM 63.5 °F 53.6 °F 70% 29.69 in 10.0 mi WSW 4.6 mph - N/A   Clear
11:15 PM 63.1 °F 53.6 °F 71% 29.69 in 10.0 mi WSW 4.6 mph - N/A   Clear
11:35 PM 62.6 °F 53.6 °F 72% 29.68 in 10.0 mi SW 4.6 mph - N/A   Clear
11:55 PM 61.9 °F 53.6 °F 74% 29.68 in 10.0 mi WSW 4.6 mph - N/A   Clear